sensor_id;sensor_type;location;lat;lon;timestamp;P1;durP1;ratioP1;P2;durP2;ratioP2
21091;SDS011;10704;42.678;23.288;2022-10-16T00:01:10;16.02;;;9.27;;
21091;SDS011;10704;42.678;23.288;2022-10-16T00:03:38;15.27;;;9.43;;
21091;SDS011;10704;42.678;23.288;2022-10-16T00:06:05;17.60;;;9.50;;
21091;SDS011;10704;42.678;23.288;2022-10-16T00:08:32;15.93;;;9.65;;
21091;SDS011;10704;42.678;23.288;2022-10-16T00:11:09;13.63;;;9.80;;
21091;SDS011;10704;42.678;23.288;2022-10-16T00:13:37;17.40;;;10.50;;
21091;SDS011;10704;42.678;23.288;2022-10-16T00:16:05;16.27;;;10.05;;
21091;SDS011;10704;42.678;23.288;2022-10-16T00:18:31;20.65;;;10.77;;
21091;SDS011;10704;42.678;23.288;2022-10-16T00:21:04;14.43;;;9.50;;
21091;SDS011;10704;42.678;23.288;2022-10-16T00:23:32;19.95;;;11.13;;
21091;SDS011;10704;42.678;23.288;2022-10-16T00:26:01;17.38;;;10.60;;
21091;SDS011;10704;42.678;23.288;2022-10-16T00:43:47;20.95;;;10.30;;
21091;SDS011;10704;42.678;23.288;2022-10-16T00:52:47;17.45;;;10.23;;
21091;SDS011;10704;42.678;23.288;2022-10-16T00:55:15;21.92;;;9.85;;
21091;SDS011;10704;42.678;23.288;2022-10-16T01:01:29;18.20;;;10.25;;
21091;SDS011;10704;42.678;23.288;2022-10-16T01:03:55;16.63;;;10.57;;
21091;SDS011;10704;42.678;23.288;2022-10-16T01:15:37;20.98;;;11.13;;
21091;SDS011;10704;42.678;23.288;2022-10-16T01:18:30;17.10;;;10.90;;
21091;SDS011;10704;42.678;23.288;2022-10-16T01:21:03;19.40;;;10.98;;
21091;SDS011;10704;42.678;23.288;2022-10-16T01:28:49;20.15;;;10.90;;
21091;SDS011;10704;42.678;23.288;2022-10-16T01:31:24;18.35;;;10.90;;
21091;SDS011;10704;42.678;23.288;2022-10-16T01:34:10;17.98;;;11.70;;
21091;SDS011;10704;42.678;23.288;2022-10-16T01:37:12;18.38;;;10.90;;
21091;SDS011;10704;42.678;23.288;2022-10-16T01:42:58;20.23;;;10.25;;
21091;SDS011;10704;42.678;23.288;2022-10-16T01:49:18;17.40;;;10.18;;
21091;SDS011;10704;42.678;23.288;2022-10-16T01:52:00;19.35;;;11.40;;
21091;SDS011;10704;42.678;23.288;2022-10-16T01:57:47;21.17;;;10.30;;
21091;SDS011;10704;42.678;23.288;2022-10-16T02:00:15;16.20;;;9.93;;
21091;SDS011;10704;42.678;23.288;2022-10-16T02:02:45;19.02;;;10.25;;
21091;SDS011;10704;42.678;23.288;2022-10-16T02:07:52;16.08;;;8.82;;
21091;SDS011;10704;42.678;23.288;2022-10-16T02:14:07;12.52;;;8.32;;
21091;SDS011;10704;42.678;23.288;2022-10-16T02:16:37;14.65;;;8.93;;
21091;SDS011;10704;42.678;23.288;2022-10-16T02:19:10;13.70;;;8.60;;
21091;SDS011;10704;42.678;23.288;2022-10-16T02:27:16;16.17;;;8.20;;
21091;SDS011;10704;42.678;23.288;2022-10-16T02:29:53;16.10;;;8.75;;
21091;SDS011;10704;42.678;23.288;2022-10-16T02:36:32;15.20;;;9.10;;
21091;SDS011;10704;42.678;23.288;2022-10-16T02:39:00;14.95;;;9.45;;
21091;SDS011;10704;42.678;23.288;2022-10-16T02:45:13;16.17;;;9.38;;
21091;SDS011;10704;42.678;23.288;2022-10-16T02:47:39;20.10;;;10.02;;
21091;SDS011;10704;42.678;23.288;2022-10-16T02:50:05;16.98;;;10.60;;
21091;SDS011;10704;42.678;23.288;2022-10-16T02:59:21;22.92;;;11.95;;
21091;SDS011;10704;42.678;23.288;2022-10-16T03:05:34;20.70;;;11.18;;
21091;SDS011;10704;42.678;23.288;2022-10-16T03:11:47;22.27;;;11.77;;
21091;SDS011;10704;42.678;23.288;2022-10-16T03:14:13;23.48;;;12.73;;
21091;SDS011;10704;42.678;23.288;2022-10-16T03:16:39;23.63;;;12.90;;
21091;SDS011;10704;42.678;23.288;2022-10-16T03:19:05;22.98;;;12.57;;
21091;SDS011;10704;42.678;23.288;2022-10-16T03:21:32;21.67;;;12.93;;
21091;SDS011;10704;42.678;23.288;2022-10-16T03:31:31;22.75;;;12.50;;
21091;SDS011;10704;42.678;23.288;2022-10-16T03:33:58;21.30;;;11.23;;
21091;SDS011;10704;42.678;23.288;2022-10-16T03:36:24;19.38;;;12.43;;
21091;SDS011;10704;42.678;23.288;2022-10-16T03:38:49;19.35;;;12.35;;
21091;SDS011;10704;42.678;23.288;2022-10-16T03:48:49;19.13;;;11.30;;
21091;SDS011;10704;42.678;23.288;2022-10-16T03:51:15;21.88;;;12.65;;
21091;SDS011;10704;42.678;23.288;2022-10-16T03:53:41;18.27;;;12.25;;
21091;SDS011;10704;42.678;23.288;2022-10-16T03:56:07;20.70;;;12.30;;
21091;SDS011;10704;42.678;23.288;2022-10-16T03:58:33;22.38;;;11.60;;
21091;SDS011;10704;42.678;23.288;2022-10-16T04:00:59;18.08;;;11.55;;
21091;SDS011;10704;42.678;23.288;2022-10-16T04:03:25;23.13;;;11.70;;
21091;SDS011;10704;42.678;23.288;2022-10-16T04:05:50;22.92;;;12.38;;
21091;SDS011;10704;42.678;23.288;2022-10-16T04:08:16;20.63;;;11.60;;
21091;SDS011;10704;42.678;23.288;2022-10-16T04:10:43;19.80;;;12.05;;
21091;SDS011;10704;42.678;23.288;2022-10-16T04:13:09;18.67;;;10.90;;
21091;SDS011;10704;42.678;23.288;2022-10-16T04:15:35;20.55;;;10.85;;
21091;SDS011;10704;42.678;23.288;2022-10-16T04:18:01;18.23;;;10.63;;
21091;SDS011;10704;42.678;23.288;2022-10-16T04:20:27;17.52;;;9.68;;
21091;SDS011;10704;42.678;23.288;2022-10-16T04:22:53;16.20;;;10.18;;
21091;SDS011;10704;42.678;23.288;2022-10-16T04:25:19;17.30;;;9.43;;
21091;SDS011;10704;42.678;23.288;2022-10-16T04:42:10;22.02;;;11.52;;
21091;SDS011;10704;42.678;23.288;2022-10-16T04:44:36;21.80;;;11.70;;
21091;SDS011;10704;42.678;23.288;2022-10-16T04:47:02;20.63;;;10.45;;
21091;SDS011;10704;42.678;23.288;2022-10-16T04:49:29;19.58;;;12.05;;
21091;SDS011;10704;42.678;23.288;2022-10-16T04:51:55;19.17;;;11.60;;
21091;SDS011;10704;42.678;23.288;2022-10-16T04:54:21;21.48;;;12.90;;
21091;SDS011;10704;42.678;23.288;2022-10-16T04:56:46;18.88;;;12.23;;
21091;SDS011;10704;42.678;23.288;2022-10-16T04:59:16;19.60;;;12.32;;
21091;SDS011;10704;42.678;23.288;2022-10-16T05:01:43;21.80;;;12.18;;
21091;SDS011;10704;42.678;23.288;2022-10-16T05:04:09;26.63;;;12.85;;
21091;SDS011;10704;42.678;23.288;2022-10-16T05:06:36;19.98;;;12.23;;
21091;SDS011;10704;42.678;23.288;2022-10-16T05:09:04;24.58;;;13.18;;
21091;SDS011;10704;42.678;23.288;2022-10-16T05:11:31;23.48;;;12.98;;
21091;SDS011;10704;42.678;23.288;2022-10-16T05:13:57;24.95;;;12.88;;
21091;SDS011;10704;42.678;23.288;2022-10-16T05:16:23;22.83;;;11.68;;
21091;SDS011;10704;42.678;23.288;2022-10-16T05:18:49;20.15;;;12.00;;
21091;SDS011;10704;42.678;23.288;2022-10-16T05:21:16;18.88;;;10.77;;
21091;SDS011;10704;42.678;23.288;2022-10-16T05:23:42;20.52;;;11.55;;
21091;SDS011;10704;42.678;23.288;2022-10-16T05:26:08;17.65;;;10.93;;
21091;SDS011;10704;42.678;23.288;2022-10-16T05:28:34;20.73;;;11.57;;
21091;SDS011;10704;42.678;23.288;2022-10-16T05:34:08;23.33;;;11.93;;
21091;SDS011;10704;42.678;23.288;2022-10-16T05:36:34;18.33;;;11.27;;
21091;SDS011;10704;42.678;23.288;2022-10-16T05:39:00;19.27;;;12.43;;
21091;SDS011;10704;42.678;23.288;2022-10-16T05:41:26;19.85;;;11.85;;
21091;SDS011;10704;42.678;23.288;2022-10-16T05:43:53;21.38;;;12.80;;
21091;SDS011;10704;42.678;23.288;2022-10-16T05:46:19;19.27;;;11.27;;
21091;SDS011;10704;42.678;23.288;2022-10-16T05:48:45;23.58;;;12.98;;
21091;SDS011;10704;42.678;23.288;2022-10-16T05:51:12;21.70;;;12.68;;
21091;SDS011;10704;42.678;23.288;2022-10-16T06:01:33;24.13;;;12.82;;
21091;SDS011;10704;42.678;23.288;2022-10-16T06:04:00;19.50;;;11.85;;
21091;SDS011;10704;42.678;23.288;2022-10-16T06:06:27;18.75;;;11.25;;
21091;SDS011;10704;42.678;23.288;2022-10-16T06:08:55;22.00;;;12.25;;
21091;SDS011;10704;42.678;23.288;2022-10-16T06:11:22;17.08;;;11.43;;
21091;SDS011;10704;42.678;23.288;2022-10-16T06:13:54;19.83;;;11.98;;
21091;SDS011;10704;42.678;23.288;2022-10-16T06:16:22;23.33;;;12.30;;
21091;SDS011;10704;42.678;23.288;2022-10-16T06:18:50;24.63;;;15.30;;
21091;SDS011;10704;42.678;23.288;2022-10-16T06:21:22;21.35;;;13.88;;
21091;SDS011;10704;42.678;23.288;2022-10-16T06:23:53;19.75;;;12.68;;
21091;SDS011;10704;42.678;23.288;2022-10-16T06:26:20;19.80;;;13.13;;
21091;SDS011;10704;42.678;23.288;2022-10-16T06:35:17;17.23;;;11.88;;
21091;SDS011;10704;42.678;23.288;2022-10-16T06:41:00;20.73;;;11.13;;
21091;SDS011;10704;42.678;23.288;2022-10-16T06:43:28;21.92;;;10.77;;
21091;SDS011;10704;42.678;23.288;2022-10-16T06:45:57;22.08;;;11.70;;
21091;SDS011;10704;42.678;23.288;2022-10-16T06:48:25;17.15;;;10.45;;
21091;SDS011;10704;42.678;23.288;2022-10-16T06:50:58;18.90;;;11.50;;
21091;SDS011;10704;42.678;23.288;2022-10-16T06:53:31;15.25;;;9.63;;
21091;SDS011;10704;42.678;23.288;2022-10-16T06:56:06;17.85;;;10.52;;
21091;SDS011;10704;42.678;23.288;2022-10-16T06:58:33;19.80;;;12.48;;
21091;SDS011;10704;42.678;23.288;2022-10-16T07:00:59;22.15;;;12.93;;
21091;SDS011;10704;42.678;23.288;2022-10-16T07:03:24;18.50;;;11.82;;
21091;SDS011;10704;42.678;23.288;2022-10-16T07:13:26;19.77;;;13.98;;
21091;SDS011;10704;42.678;23.288;2022-10-16T07:15:52;18.65;;;12.63;;
21091;SDS011;10704;42.678;23.288;2022-10-16T07:18:18;16.48;;;11.20;;
21091;SDS011;10704;42.678;23.288;2022-10-16T07:27:07;18.90;;;11.10;;
21091;SDS011;10704;42.678;23.288;2022-10-16T07:29:32;18.40;;;12.02;;
21091;SDS011;10704;42.678;23.288;2022-10-16T07:31:58;15.98;;;10.85;;
21091;SDS011;10704;42.678;23.288;2022-10-16T07:34:24;17.65;;;10.50;;
21091;SDS011;10704;42.678;23.288;2022-10-16T07:36:51;16.60;;;11.65;;
21091;SDS011;10704;42.678;23.288;2022-10-16T07:39:17;20.38;;;11.20;;
21091;SDS011;10704;42.678;23.288;2022-10-16T07:41:43;24.65;;;10.90;;
21091;SDS011;10704;42.678;23.288;2022-10-16T07:44:09;19.20;;;10.95;;
21091;SDS011;10704;42.678;23.288;2022-10-16T07:46:35;15.38;;;10.35;;
21091;SDS011;10704;42.678;23.288;2022-10-16T07:49:01;17.67;;;11.10;;
21091;SDS011;10704;42.678;23.288;2022-10-16T07:51:28;18.40;;;11.18;;
21091;SDS011;10704;42.678;23.288;2022-10-16T07:53:54;17.77;;;11.00;;
21091;SDS011;10704;42.678;23.288;2022-10-16T08:00:08;16.77;;;11.80;;
21091;SDS011;10704;42.678;23.288;2022-10-16T08:02:39;15.20;;;11.35;;
21091;SDS011;10704;42.678;23.288;2022-10-16T08:05:05;20.15;;;12.43;;
21091;SDS011;10704;42.678;23.288;2022-10-16T08:07:32;17.05;;;12.20;;
21091;SDS011;10704;42.678;23.288;2022-10-16T08:09:58;14.40;;;10.30;;
21091;SDS011;10704;42.678;23.288;2022-10-16T08:12:24;15.43;;;10.57;;
21091;SDS011;10704;42.678;23.288;2022-10-16T08:14:50;15.80;;;10.82;;
21091;SDS011;10704;42.678;23.288;2022-10-16T08:17:16;16.25;;;10.38;;
21091;SDS011;10704;42.678;23.288;2022-10-16T08:19:46;15.40;;;11.65;;
21091;SDS011;10704;42.678;23.288;2022-10-16T08:25:23;11.10;;;7.45;;
21091;SDS011;10704;42.678;23.288;2022-10-16T08:33:54;13.63;;;7.97;;
21091;SDS011;10704;42.678;23.288;2022-10-16T08:39:36;11.68;;;6.88;;
21091;SDS011;10704;42.678;23.288;2022-10-16T08:42:24;14.65;;;6.72;;
21091;SDS011;10704;42.678;23.288;2022-10-16T09:01:00;12.98;;;5.15;;
21091;SDS011;10704;42.678;23.288;2022-10-16T09:06:52;11.60;;;4.70;;
21091;SDS011;10704;42.678;23.288;2022-10-16T09:20:23;7.32;;;3.95;;
21091;SDS011;10704;42.678;23.288;2022-10-16T09:23:15;7.57;;;4.03;;
21091;SDS011;10704;42.678;23.288;2022-10-16T09:25:50;8.10;;;3.80;;
21091;SDS011;10704;42.678;23.288;2022-10-16T09:28:17;6.90;;;4.07;;
21091;SDS011;10704;42.678;23.288;2022-10-16T09:30:43;7.93;;;4.35;;
21091;SDS011;10704;42.678;23.288;2022-10-16T09:33:11;7.97;;;3.70;;
21091;SDS011;10704;42.678;23.288;2022-10-16T09:38:34;8.80;;;3.28;;
21091;SDS011;10704;42.678;23.288;2022-10-16T09:43:57;9.25;;;3.80;;
21091;SDS011;10704;42.678;23.288;2022-10-16T09:46:26;7.38;;;4.00;;
21091;SDS011;10704;42.678;23.288;2022-10-16T09:49:00;7.00;;;3.47;;
21091;SDS011;10704;42.678;23.288;2022-10-16T09:51:43;7.32;;;3.22;;
21091;SDS011;10704;42.678;23.288;2022-10-16T09:57:57;6.47;;;3.45;;
21091;SDS011;10704;42.678;23.288;2022-10-16T10:00:23;7.70;;;3.10;;
21091;SDS011;10704;42.678;23.288;2022-10-16T10:02:49;10.65;;;3.97;;
21091;SDS011;10704;42.678;23.288;2022-10-16T10:05:20;6.57;;;3.50;;
21091;SDS011;10704;42.678;23.288;2022-10-16T10:07:53;7.25;;;3.58;;
21091;SDS011;10704;42.678;23.288;2022-10-16T10:10:23;6.88;;;3.35;;
21091;SDS011;10704;42.678;23.288;2022-10-16T10:12:53;6.18;;;3.40;;
21091;SDS011;10704;42.678;23.288;2022-10-16T10:15:20;6.30;;;3.28;;
21091;SDS011;10704;42.678;23.288;2022-10-16T10:17:58;4.95;;;3.35;;
21091;SDS011;10704;42.678;23.288;2022-10-16T10:22:54;5.88;;;3.72;;
21091;SDS011;10704;42.678;23.288;2022-10-16T10:28:17;7.47;;;3.92;;
21091;SDS011;10704;42.678;23.288;2022-10-16T10:30:58;8.25;;;4.20;;
21091;SDS011;10704;42.678;23.288;2022-10-16T10:38:53;5.25;;;2.83;;
21091;SDS011;10704;42.678;23.288;2022-10-16T10:50:30;5.38;;;2.88;;
21091;SDS011;10704;42.678;23.288;2022-10-16T10:55:49;7.38;;;3.05;;
21091;SDS011;10704;42.678;23.288;2022-10-16T11:00:55;7.32;;;3.30;;
21091;SDS011;10704;42.678;23.288;2022-10-16T11:09:10;7.10;;;2.97;;
21091;SDS011;10704;42.678;23.288;2022-10-16T11:14:22;9.02;;;4.85;;
21091;SDS011;10704;42.678;23.288;2022-10-16T11:20:18;4.22;;;3.05;;
21091;SDS011;10704;42.678;23.288;2022-10-16T11:22:50;8.35;;;3.13;;
21091;SDS011;10704;42.678;23.288;2022-10-16T11:25:28;5.80;;;3.20;;
21091;SDS011;10704;42.678;23.288;2022-10-16T11:27:57;7.60;;;3.10;;
21091;SDS011;10704;42.678;23.288;2022-10-16T11:30:33;5.35;;;2.88;;
21091;SDS011;10704;42.678;23.288;2022-10-16T11:41:34;5.43;;;2.97;;
21091;SDS011;10704;42.678;23.288;2022-10-16T11:47:27;4.45;;;3.30;;
21091;SDS011;10704;42.678;23.288;2022-10-16T11:49:53;7.55;;;3.30;;
21091;SDS011;10704;42.678;23.288;2022-10-16T11:57:54;7.35;;;3.35;;
21091;SDS011;10704;42.678;23.288;2022-10-16T12:03:14;13.63;;;3.60;;
21091;SDS011;10704;42.678;23.288;2022-10-16T12:08:23;5.28;;;3.08;;
21091;SDS011;10704;42.678;23.288;2022-10-16T12:14:37;7.18;;;3.38;;
21091;SDS011;10704;42.678;23.288;2022-10-16T12:19:56;5.80;;;3.00;;
21091;SDS011;10704;42.678;23.288;2022-10-16T12:22:41;6.10;;;3.70;;
21091;SDS011;10704;42.678;23.288;2022-10-16T12:30:40;5.95;;;3.72;;
21091;SDS011;10704;42.678;23.288;2022-10-16T12:35:50;4.22;;;2.67;;
21091;SDS011;10704;42.678;23.288;2022-10-16T12:41:03;8.50;;;3.38;;
21091;SDS011;10704;42.678;23.288;2022-10-16T12:48:39;6.50;;;3.00;;
21091;SDS011;10704;42.678;23.288;2022-10-16T12:51:10;6.22;;;3.20;;
21091;SDS011;10704;42.678;23.288;2022-10-16T12:53:38;6.38;;;3.50;;
21091;SDS011;10704;42.678;23.288;2022-10-16T13:01:10;7.03;;;3.47;;
21091;SDS011;10704;42.678;23.288;2022-10-16T13:06:33;6.93;;;3.50;;
21091;SDS011;10704;42.678;23.288;2022-10-16T13:20:33;7.85;;;3.25;;
21091;SDS011;10704;42.678;23.288;2022-10-16T13:23:15;7.07;;;3.67;;
21091;SDS011;10704;42.678;23.288;2022-10-16T13:28:44;6.25;;;3.38;;
21091;SDS011;10704;42.678;23.288;2022-10-16T13:31:20;5.97;;;3.13;;
21091;SDS011;10704;42.678;23.288;2022-10-16T13:33:50;4.85;;;3.17;;
21091;SDS011;10704;42.678;23.288;2022-10-16T13:36:21;8.02;;;3.20;;
21091;SDS011;10704;42.678;23.288;2022-10-16T13:41:45;7.15;;;2.97;;
21091;SDS011;10704;42.678;23.288;2022-10-16T13:44:23;5.20;;;3.00;;
21091;SDS011;10704;42.678;23.288;2022-10-16T13:46:57;8.75;;;3.65;;
21091;SDS011;10704;42.678;23.288;2022-10-16T13:49:24;5.05;;;3.00;;
21091;SDS011;10704;42.678;23.288;2022-10-16T13:51:54;7.15;;;3.17;;
21091;SDS011;10704;42.678;23.288;2022-10-16T13:54:21;6.07;;;3.88;;
21091;SDS011;10704;42.678;23.288;2022-10-16T13:56:47;5.95;;;3.15;;
21091;SDS011;10704;42.678;23.288;2022-10-16T13:59:26;4.43;;;2.67;;
21091;SDS011;10704;42.678;23.288;2022-10-16T14:01:59;5.03;;;3.10;;
21091;SDS011;10704;42.678;23.288;2022-10-16T14:04:31;10.57;;;3.15;;
21091;SDS011;10704;42.678;23.288;2022-10-16T14:06:58;6.40;;;3.50;;
21091;SDS011;10704;42.678;23.288;2022-10-16T14:09:28;6.28;;;3.13;;
21091;SDS011;10704;42.678;23.288;2022-10-16T14:11:56;4.15;;;2.83;;
21091;SDS011;10704;42.678;23.288;2022-10-16T14:14:24;5.60;;;3.17;;
21091;SDS011;10704;42.678;23.288;2022-10-16T14:16:52;9.10;;;3.60;;
21091;SDS011;10704;42.678;23.288;2022-10-16T14:19:21;4.88;;;2.53;;
21091;SDS011;10704;42.678;23.288;2022-10-16T14:21:52;5.78;;;2.85;;
21091;SDS011;10704;42.678;23.288;2022-10-16T14:24:31;6.65;;;2.75;;
21091;SDS011;10704;42.678;23.288;2022-10-16T14:26:59;6.68;;;2.40;;
21091;SDS011;10704;42.678;23.288;2022-10-16T14:29:26;7.28;;;2.70;;
21091;SDS011;10704;42.678;23.288;2022-10-16T14:31:58;7.72;;;2.88;;
21091;SDS011;10704;42.678;23.288;2022-10-16T14:37:17;5.18;;;2.67;;
21091;SDS011;10704;42.678;23.288;2022-10-16T14:39:49;6.07;;;3.28;;
21091;SDS011;10704;42.678;23.288;2022-10-16T14:42:17;6.57;;;3.10;;
21091;SDS011;10704;42.678;23.288;2022-10-16T14:44:44;9.35;;;3.40;;
21091;SDS011;10704;42.678;23.288;2022-10-16T14:47:13;7.88;;;2.95;;
21091;SDS011;10704;42.678;23.288;2022-10-16T14:49:47;4.85;;;2.53;;
21091;SDS011;10704;42.678;23.288;2022-10-16T14:52:13;5.63;;;3.00;;
21091;SDS011;10704;42.678;23.288;2022-10-16T14:54:39;7.75;;;2.85;;
21091;SDS011;10704;42.678;23.288;2022-10-16T14:57:13;4.70;;;2.53;;
21091;SDS011;10704;42.678;23.288;2022-10-16T14:59:42;7.90;;;2.83;;
21091;SDS011;10704;42.678;23.288;2022-10-16T15:04:48;8.63;;;3.53;;
21091;SDS011;10704;42.678;23.288;2022-10-16T15:07:14;9.27;;;3.08;;
21091;SDS011;10704;42.678;23.288;2022-10-16T15:09:40;5.75;;;2.75;;
21091;SDS011;10704;42.678;23.288;2022-10-16T15:12:06;5.93;;;2.70;;
21091;SDS011;10704;42.678;23.288;2022-10-16T15:14:32;5.88;;;2.70;;
21091;SDS011;10704;42.678;23.288;2022-10-16T15:16:58;5.53;;;2.90;;
21091;SDS011;10704;42.678;23.288;2022-10-16T15:19:24;5.13;;;2.70;;
21091;SDS011;10704;42.678;23.288;2022-10-16T15:21:50;6.18;;;2.70;;
21091;SDS011;10704;42.678;23.288;2022-10-16T15:24:17;6.82;;;2.80;;
21091;SDS011;10704;42.678;23.288;2022-10-16T15:26:43;7.47;;;3.20;;
21091;SDS011;10704;42.678;23.288;2022-10-16T15:29:11;6.45;;;3.10;;
21091;SDS011;10704;42.678;23.288;2022-10-16T15:31:37;7.22;;;3.55;;
21091;SDS011;10704;42.678;23.288;2022-10-16T15:34:04;11.23;;;4.15;;
21091;SDS011;10704;42.678;23.288;2022-10-16T15:36:32;5.80;;;3.22;;
21091;SDS011;10704;42.678;23.288;2022-10-16T15:39:02;12.05;;;4.00;;
21091;SDS011;10704;42.678;23.288;2022-10-16T15:41:28;12.48;;;5.20;;
21091;SDS011;10704;42.678;23.288;2022-10-16T15:43:55;7.10;;;3.85;;
21091;SDS011;10704;42.678;23.288;2022-10-16T15:46:21;8.15;;;3.60;;
21091;SDS011;10704;42.678;23.288;2022-10-16T15:48:49;9.43;;;4.30;;
21091;SDS011;10704;42.678;23.288;2022-10-16T15:51:16;10.45;;;4.63;;
21091;SDS011;10704;42.678;23.288;2022-10-16T15:53:43;8.05;;;3.75;;
21091;SDS011;10704;42.678;23.288;2022-10-16T15:56:11;10.63;;;3.78;;
21091;SDS011;10704;42.678;23.288;2022-10-16T15:58:38;12.75;;;4.95;;
21091;SDS011;10704;42.678;23.288;2022-10-16T16:01:05;11.73;;;4.10;;
21091;SDS011;10704;42.678;23.288;2022-10-16T16:03:32;10.10;;;4.30;;
21091;SDS011;10704;42.678;23.288;2022-10-16T16:06:02;7.90;;;3.88;;
21091;SDS011;10704;42.678;23.288;2022-10-16T16:08:30;6.15;;;3.47;;
21091;SDS011;10704;42.678;23.288;2022-10-16T16:11:29;14.13;;;3.97;;
21091;SDS011;10704;42.678;23.288;2022-10-16T16:13:48;11.85;;;4.43;;
21091;SDS011;10704;42.678;23.288;2022-10-16T16:16:15;11.10;;;4.38;;
21091;SDS011;10704;42.678;23.288;2022-10-16T16:18:42;8.80;;;3.88;;
21091;SDS011;10704;42.678;23.288;2022-10-16T16:21:10;6.65;;;4.40;;
21091;SDS011;10704;42.678;23.288;2022-10-16T16:23:37;8.52;;;4.50;;
21091;SDS011;10704;42.678;23.288;2022-10-16T16:26:07;10.07;;;5.25;;
21091;SDS011;10704;42.678;23.288;2022-10-16T16:28:42;11.63;;;5.43;;
21091;SDS011;10704;42.678;23.288;2022-10-16T16:31:08;10.15;;;4.35;;
21091;SDS011;10704;42.678;23.288;2022-10-16T16:33:34;10.10;;;5.07;;
21091;SDS011;10704;42.678;23.288;2022-10-16T16:36:02;10.18;;;4.53;;
21091;SDS011;10704;42.678;23.288;2022-10-16T16:38:32;11.52;;;5.25;;
21091;SDS011;10704;42.678;23.288;2022-10-16T16:40:58;15.85;;;7.03;;
21091;SDS011;10704;42.678;23.288;2022-10-16T16:43:25;22.05;;;11.13;;
21091;SDS011;10704;42.678;23.288;2022-10-16T16:45:53;11.80;;;6.25;;
21091;SDS011;10704;42.678;23.288;2022-10-16T16:52:07;9.68;;;4.75;;
21091;SDS011;10704;42.678;23.288;2022-10-16T16:54:33;15.30;;;7.45;;
21091;SDS011;10704;42.678;23.288;2022-10-16T16:57:00;21.17;;;8.82;;
21091;SDS011;10704;42.678;23.288;2022-10-16T16:59:26;13.80;;;7.78;;
21091;SDS011;10704;42.678;23.288;2022-10-16T17:01:52;39.25;;;9.73;;
21091;SDS011;10704;42.678;23.288;2022-10-16T17:04:18;15.55;;;6.63;;
21091;SDS011;10704;42.678;23.288;2022-10-16T17:06:44;19.95;;;8.57;;
21091;SDS011;10704;42.678;23.288;2022-10-16T17:09:10;21.48;;;7.60;;
21091;SDS011;10704;42.678;23.288;2022-10-16T17:11:40;25.40;;;10.32;;
21091;SDS011;10704;42.678;23.288;2022-10-16T17:14:08;18.15;;;8.30;;
21091;SDS011;10704;42.678;23.288;2022-10-16T17:16:35;13.63;;;6.05;;
21091;SDS011;10704;42.678;23.288;2022-10-16T17:19:03;11.02;;;5.78;;
21091;SDS011;10704;42.678;23.288;2022-10-16T17:21:31;11.07;;;5.25;;
21091;SDS011;10704;42.678;23.288;2022-10-16T17:23:58;10.75;;;5.32;;
21091;SDS011;10704;42.678;23.288;2022-10-16T17:26:25;9.45;;;5.10;;
21091;SDS011;10704;42.678;23.288;2022-10-16T17:28:52;19.92;;;10.13;;
21091;SDS011;10704;42.678;23.288;2022-10-16T17:31:21;28.25;;;11.45;;
21091;SDS011;10704;42.678;23.288;2022-10-16T17:33:50;33.47;;;15.30;;
21091;SDS011;10704;42.678;23.288;2022-10-16T17:36:16;26.38;;;14.00;;
21091;SDS011;10704;42.678;23.288;2022-10-16T17:38:43;24.50;;;13.93;;
21091;SDS011;10704;42.678;23.288;2022-10-16T17:41:10;34.63;;;14.35;;
21091;SDS011;10704;42.678;23.288;2022-10-16T17:43:37;30.35;;;15.25;;
21091;SDS011;10704;42.678;23.288;2022-10-16T17:46:03;25.02;;;12.65;;
21091;SDS011;10704;42.678;23.288;2022-10-16T17:48:30;29.50;;;15.40;;
21091;SDS011;10704;42.678;23.288;2022-10-16T17:50:56;33.88;;;15.68;;
21091;SDS011;10704;42.678;23.288;2022-10-16T17:53:22;35.13;;;19.42;;
21091;SDS011;10704;42.678;23.288;2022-10-16T17:55:48;35.92;;;18.58;;
21091;SDS011;10704;42.678;23.288;2022-10-16T17:58:14;32.72;;;17.58;;
21091;SDS011;10704;42.678;23.288;2022-10-16T18:00:40;34.97;;;17.38;;
21091;SDS011;10704;42.678;23.288;2022-10-16T18:03:05;29.88;;;17.52;;
21091;SDS011;10704;42.678;23.288;2022-10-16T18:05:32;31.63;;;18.70;;
21091;SDS011;10704;42.678;23.288;2022-10-16T18:08:02;27.48;;;16.85;;
21091;SDS011;10704;42.678;23.288;2022-10-16T18:10:28;30.67;;;15.07;;
21091;SDS011;10704;42.678;23.288;2022-10-16T18:12:54;36.15;;;17.00;;
21091;SDS011;10704;42.678;23.288;2022-10-16T18:15:21;30.58;;;17.08;;
21091;SDS011;10704;42.678;23.288;2022-10-16T18:17:46;32.28;;;17.63;;
21091;SDS011;10704;42.678;23.288;2022-10-16T18:20:12;36.33;;;17.98;;
21091;SDS011;10704;42.678;23.288;2022-10-16T18:22:38;41.50;;;20.70;;
21091;SDS011;10704;42.678;23.288;2022-10-16T18:25:04;31.90;;;17.35;;
21091;SDS011;10704;42.678;23.288;2022-10-16T18:27:31;31.77;;;17.05;;
21091;SDS011;10704;42.678;23.288;2022-10-16T18:29:58;31.35;;;17.42;;
21091;SDS011;10704;42.678;23.288;2022-10-16T18:32:24;31.17;;;17.60;;
21091;SDS011;10704;42.678;23.288;2022-10-16T18:34:51;28.05;;;13.90;;
21091;SDS011;10704;42.678;23.288;2022-10-16T18:37:18;36.88;;;17.58;;
21091;SDS011;10704;42.678;23.288;2022-10-16T18:39:45;37.88;;;20.42;;
21091;SDS011;10704;42.678;23.288;2022-10-16T18:42:15;38.20;;;20.50;;
21091;SDS011;10704;42.678;23.288;2022-10-16T18:44:41;41.35;;;21.42;;
21091;SDS011;10704;42.678;23.288;2022-10-16T18:47:07;42.53;;;20.30;;
21091;SDS011;10704;42.678;23.288;2022-10-16T18:49:33;33.58;;;17.08;;
21091;SDS011;10704;42.678;23.288;2022-10-16T18:51:59;21.98;;;13.68;;
21091;SDS011;10704;42.678;23.288;2022-10-16T18:54:27;30.30;;;16.75;;
21091;SDS011;10704;42.678;23.288;2022-10-16T18:56:54;40.22;;;16.75;;
21091;SDS011;10704;42.678;23.288;2022-10-16T18:59:20;29.48;;;14.55;;
21091;SDS011;10704;42.678;23.288;2022-10-16T19:01:47;28.38;;;13.88;;
21091;SDS011;10704;42.678;23.288;2022-10-16T19:04:14;25.17;;;13.30;;
21091;SDS011;10704;42.678;23.288;2022-10-16T19:06:45;24.52;;;13.68;;
21091;SDS011;10704;42.678;23.288;2022-10-16T19:09:14;21.02;;;13.15;;
21091;SDS011;10704;42.678;23.288;2022-10-16T19:11:41;23.02;;;12.20;;
21091;SDS011;10704;42.678;23.288;2022-10-16T19:14:09;21.90;;;11.57;;
21091;SDS011;10704;42.678;23.288;2022-10-16T19:16:36;23.27;;;12.23;;
21091;SDS011;10704;42.678;23.288;2022-10-16T19:19:05;24.63;;;13.40;;
21091;SDS011;10704;42.678;23.288;2022-10-16T19:21:33;20.83;;;12.63;;
21091;SDS011;10704;42.678;23.288;2022-10-16T19:24:01;23.80;;;11.88;;
21091;SDS011;10704;42.678;23.288;2022-10-16T19:26:29;22.05;;;12.70;;
21091;SDS011;10704;42.678;23.288;2022-10-16T19:28:57;24.50;;;13.40;;
21091;SDS011;10704;42.678;23.288;2022-10-16T19:31:25;23.88;;;12.45;;
21091;SDS011;10704;42.678;23.288;2022-10-16T19:33:53;23.05;;;13.90;;
21091;SDS011;10704;42.678;23.288;2022-10-16T19:36:22;25.83;;;13.73;;
21091;SDS011;10704;42.678;23.288;2022-10-16T19:38:53;26.48;;;13.88;;
21091;SDS011;10704;42.678;23.288;2022-10-16T19:41:26;24.67;;;12.13;;
21091;SDS011;10704;42.678;23.288;2022-10-16T19:43:53;23.15;;;12.90;;
21091;SDS011;10704;42.678;23.288;2022-10-16T19:46:21;26.88;;;14.75;;
21091;SDS011;10704;42.678;23.288;2022-10-16T19:48:52;25.13;;;14.35;;